Chappell, Kentucky
Current Conditions -  °F | °C
As of 8:15 PM on Friday 28 Nov 2014 (Local Time) from KI35 Reporting Station
Clear Clear  
Wind Chill: 34°   Ceiling: Unl
Heat Index: 34°   Visibility: 10mi
Dew Point: 18°   Wind: 3mph
Humidity: 52%   Direction: 70°ENE
Pressure: 30.22"   Gusts: NA
Location:  37.01°N, 83.35°W
Report Text: KI35 290115Z AUTO 07003KT 10SM CLR 01/M08 A3022 RMK AO1
Loading
Personal Weather Stations






























Interactive Weather Map New forecast layout! Learn more

10-Day Weather Forecast

Advertisements
Track Severe Weather on mobile